Albany, Minnesota
Current Conditions -  °F | °C
As of 4:12 PM on Wednesday 28 Jan 2015 (Local Time) from KD39 Reporting Station
Haze Haze  
Wind Chill: 22°   Ceiling: 400
Heat Index: 30°   Visibility: 2.5mi
Dew Point: 29°   Wind: 9mph
Humidity: 96%   Direction: 160°SSE
Pressure: 29.78"   Gusts: NA
Location:  45.63°N, 94.57°W
Report Text: KD39 282212Z AUTO 16008KT 2 1/2SM BR OVC004 M01/M01 A2978 RMK AO2 T10101015
Loading
Personal Weather Stations






























Interactive Weather Map New forecast layout! Learn more

10-Day Weather Forecast

Advertisements
Track Severe Weather on mobile